createdAt,value
2022-08-10T00:04:21.193Z,100440.66
2022-08-10T00:09:13.326Z,100440.59
2022-08-10T00:14:04.960Z,100431.72
2022-08-10T00:18:56.620Z,100430.84
2022-08-10T00:23:48.267Z,100427.72
2022-08-10T00:28:39.948Z,100433.66
2022-08-10T00:33:31.576Z,100424.25
2022-08-10T00:38:23.343Z,100418.19
2022-08-10T00:43:15.071Z,100408.28
2022-08-10T00:48:16.133Z,100417.59
2022-08-10T00:53:08.138Z,100411.53
2022-08-10T00:58:00.468Z,100410.47
2022-08-10T01:02:53.183Z,100410.22
2022-08-10T01:07:51.172Z,100414.94
2022-08-10T01:13:07.127Z,100413.81
2022-08-10T01:18:05.555Z,100415.19
2022-08-10T01:23:34.712Z,100419.59
2022-08-10T01:29:01.282Z,100412.97
2022-08-10T01:34:02.337Z,100410.97
2022-08-10T01:38:56.897Z,100406.00
2022-08-10T01:44:00.033Z,100404.81
2022-08-10T01:48:59.026Z,100403.88
2022-08-10T01:54:12.947Z,100407.41
2022-08-10T01:59:10.859Z,100404.03
2022-08-10T02:04:08.242Z,100402.56
2022-08-10T02:09:06.478Z,100398.06
2022-08-10T02:14:00.889Z,100406.22
2022-08-10T02:18:55.134Z,100414.41
2022-08-10T02:23:59.716Z,100410.44
2022-08-10T02:28:54.685Z,100409.75
2022-08-10T02:33:56.446Z,100407.44
2022-08-10T02:39:00.971Z,100422.44
2022-08-10T02:45:19.467Z,100412.94
2022-08-10T02:49:32.377Z,100419.13
2022-08-10T02:54:28.955Z,100410.91
2022-08-10T02:59:39.877Z,100417.66
2022-08-10T03:04:57.269Z,100408.97
2022-08-10T03:09:52.122Z,100402.84
2022-08-10T03:14:45.617Z,100406.56
2022-08-10T03:20:34.707Z,100396.09
2022-08-10T03:24:51.566Z,100401.47
2022-08-10T03:30:29.995Z,100402.19
2022-08-10T03:34:58.514Z,100411.78
2022-08-10T03:39:51.467Z,100414.75
2022-08-10T03:44:47.398Z,100408.41
2022-08-10T03:49:44.071Z,100413.31
2022-08-10T03:54:36.102Z,100410.84
2022-08-10T03:59:28.323Z,100417.13
2022-08-10T04:04:24.695Z,100423.22
2022-08-10T04:09:17.337Z,100417.13
2022-08-10T04:14:09.225Z,100420.13
2022-08-10T04:19:21.811Z,100422.28
2022-08-10T04:24:29.048Z,100421.47
2022-08-10T04:29:21.747Z,100412.63
2022-08-10T04:34:15.801Z,100411.25
2022-08-10T04:39:08.023Z,100417.78
2022-08-10T04:43:59.726Z,100415.28
2022-08-10T04:49:01.265Z,100409.72
2022-08-10T04:54:04.080Z,100422.31
2022-08-10T04:58:57.896Z,100408.03
2022-08-10T05:04:37.152Z,100420.44
2022-08-10T05:09:01.198Z,100410.53
2022-08-10T05:13:52.814Z,100405.88
2022-08-10T05:18:44.422Z,100404.00
2022-08-10T05:23:36.062Z,100410.28
2022-08-10T05:28:27.858Z,100412.53
2022-08-10T05:33:24.235Z,100408.28
2022-08-10T05:38:17.810Z,100392.78
2022-08-10T05:43:09.587Z,100404.88
2022-08-10T05:48:58.146Z,100409.81
2022-08-10T05:53:59.643Z,100404.47
2022-08-10T05:58:27.968Z,100398.66
2022-08-10T06:03:24.349Z,100402.53
2022-08-10T06:08:19.246Z,100405.81
2022-08-10T06:13:34.803Z,100398.25
2022-08-10T06:18:43.446Z,100405.69
2022-08-10T06:23:37.087Z,100408.63
2022-08-10T06:28:31.260Z,100405.63
2022-08-10T06:33:24.518Z,100405.38
2022-08-10T06:38:17.225Z,100409.63
2022-08-10T06:43:13.489Z,100410.28
2022-08-10T06:48:28.753Z,100409.91
2022-08-10T06:53:22.853Z,100405.41
2022-08-10T06:58:15.818Z,100407.00
2022-08-10T07:03:11.521Z,100414.22
2022-08-10T07:08:03.978Z,100414.81
2022-08-10T07:12:57.947Z,100407.97
2022-08-10T07:17:52.814Z,100406.19
2022-08-10T07:23:01.306Z,100407.22
2022-08-10T07:28:03.385Z,100395.09
2022-08-10T07:32:56.136Z,100395.97
2022-08-10T07:37:51.445Z,100393.38
2022-08-10T07:42:46.179Z,100395.50
2022-08-10T07:47:53.533Z,100400.75
2022-08-10T07:52:48.910Z,100406.44
2022-08-10T07:57:44.544Z,100408.34
2022-08-10T08:02:46.236Z,100398.72
2022-08-10T08:07:39.019Z,100403.38
2022-08-10T08:12:36.910Z,100391.78
2022-08-10T08:17:36.432Z,100396.81
2022-08-10T08:24:09.318Z,100397.44
2022-08-10T08:27:42.854Z,100394.72
2022-08-10T08:32:42.349Z,100398.47
2022-08-10T08:38:32.337Z,100394.41
2022-08-10T08:43:27.368Z,100401.59
2022-08-10T08:48:31.276Z,100392.53
2022-08-10T08:54:01.756Z,100386.78
2022-08-10T08:59:11.405Z,100387.97
2022-08-10T09:04:24.189Z,100382.31
2022-08-10T09:09:35.374Z,100375.38
2022-08-10T09:14:57.107Z,100376.72
2022-08-10T09:19:56.029Z,100377.13
2022-08-10T09:25:14.143Z,100374.66
2022-08-10T09:30:08.674Z,100368.41
2022-08-10T09:36:22.293Z,100363.84
2022-08-10T09:41:00.940Z,100362.88
2022-08-10T09:46:20.521Z,100356.41
2022-08-10T09:56:41.643Z,100347.72
2022-08-10T10:02:02.959Z,100347.81
2022-08-10T10:06:58.538Z,100347.06
2022-08-10T10:11:50.104Z,100334.19
2022-08-10T10:17:03.987Z,100337.56
2022-08-10T10:22:10.678Z,100324.41
2022-08-10T10:27:24.661Z,100320.91
2022-08-10T10:32:24.476Z,100330.56
2022-08-10T10:37:20.044Z,100327.16
2022-08-10T10:42:46.887Z,100315.09
2022-08-10T10:47:50.636Z,100310.28
2022-08-10T10:53:18.026Z,100297.84
2022-08-10T10:58:21.731Z,100306.56
2022-08-10T11:03:23.673Z,100292.84
2022-08-10T11:08:29.325Z,100297.28
2022-08-10T11:14:25.481Z,100301.28
2022-08-10T11:18:58.038Z,100294.06
2022-08-10T11:24:47.037Z,100288.75
2022-08-10T11:29:32.317Z,100285.06
2022-08-10T11:35:10.433Z,100274.19
2022-08-10T11:40:13.205Z,100283.50
2022-08-10T11:45:29.649Z,100277.16
2022-08-10T11:50:26.677Z,100269.16
2022-08-10T11:55:24.714Z,100277.69
2022-08-10T12:00:17.464Z,100272.47
2022-08-10T12:05:18.152Z,100267.63
2022-08-10T12:10:13.704Z,100261.88
2022-08-10T12:15:27.947Z,100266.91
2022-08-10T12:20:39.435Z,100263.09
2022-08-10T12:25:59.307Z,100258.00
2022-08-10T12:30:56.553Z,100247.63
2022-08-10T12:36:17.410Z,100232.03
2022-08-10T12:41:43.743Z,100235.56
2022-08-10T12:46:38.743Z,100232.78
2022-08-10T12:51:33.699Z,100219.88
2022-08-10T12:56:28.024Z,100213.53
2022-08-10T13:01:23.372Z,100207.25
2022-08-10T13:06:16.861Z,100205.03
2022-08-10T13:12:34.332Z,100198.84
2022-08-10T13:16:24.578Z,100203.13
2022-08-10T13:21:29.864Z,100194.69
2022-08-10T13:26:26.330Z,100206.63
2022-08-10T13:32:03.378Z,100196.41
2022-08-10T13:36:41.761Z,100187.38
2022-08-10T13:41:45.138Z,100185.63
2022-08-10T13:46:40.478Z,100174.78
2022-08-10T13:51:53.973Z,100163.25
2022-08-10T13:56:51.155Z,100149.94
2022-08-10T14:01:48.973Z,100147.66
2022-08-10T14:06:48.661Z,100151.88
2022-08-10T14:11:42.046Z,100144.63
2022-08-10T14:16:35.076Z,100130.25
2022-08-10T14:21:27.826Z,100126.50
2022-08-10T14:26:25.150Z,100130.34
2022-08-10T14:31:22.194Z,100122.06
2022-08-10T14:36:24.236Z,100125.44
2022-08-10T14:42:02.581Z,100117.03
2022-08-10T14:46:36.821Z,100115.13
2022-08-10T14:51:43.907Z,100103.09
2022-08-10T14:56:37.318Z,100103.81
2022-08-10T15:02:01.468Z,100108.63
2022-08-10T15:06:54.118Z,100102.78
2022-08-10T15:12:13.354Z,100092.25
2022-08-10T15:17:11.349Z,100088.25
2022-08-10T15:22:18.127Z,100084.59
2022-08-10T15:27:19.468Z,100083.84
2022-08-10T15:32:30.402Z,100070.44
2022-08-10T15:37:47.165Z,100067.59
2022-08-10T15:42:39.155Z,100068.16
2022-08-10T15:47:45.623Z,100064.28
2022-08-10T15:53:00.483Z,100054.59
2022-08-10T15:58:12.950Z,100050.50
2022-08-10T16:03:15.843Z,100054.53
2022-08-10T16:08:11.171Z,100043.25
2022-08-10T16:13:50.504Z,100044.97
2022-08-10T16:18:27.705Z,100047.66
2022-08-10T16:23:23.992Z,100047.38
2022-08-10T16:28:19.980Z,100047.25
2022-08-10T16:33:18.562Z,100039.88
2022-08-10T16:38:13.391Z,100035.56
2022-08-10T16:43:09.325Z,100027.38
2022-08-10T16:48:01.894Z,100028.28
2022-08-10T16:52:54.263Z,100029.78
2022-08-10T16:57:48.507Z,100021.03
2022-08-10T17:02:45.978Z,100027.78
2022-08-10T17:07:40.875Z,100019.41
2022-08-10T17:12:34.979Z,100016.94
2022-08-10T17:17:31.362Z,100017.03
2022-08-10T17:22:28.170Z,100009.28
2022-08-10T17:28:05.633Z,100008.44
2022-08-10T17:33:24.845Z,99999.13
2022-08-10T17:38:21.341Z,100001.97
2022-08-10T17:44:00.805Z,99994.66
2022-08-10T17:48:34.921Z,99993.53
2022-08-10T17:53:42.046Z,99994.91
2022-08-10T17:58:35.780Z,99999.69
2022-08-10T18:03:32.277Z,99990.97
2022-08-10T18:08:25.314Z,99995.75
2022-08-10T18:13:21.622Z,99998.22
2022-08-10T18:18:20.884Z,100002.84
2022-08-10T18:23:13.554Z,100007.81
2022-08-10T18:28:10.664Z,100004.03
2022-08-10T18:33:04.607Z,100010.97
2022-08-10T18:38:01.462Z,100001.47
2022-08-10T18:42:56.466Z,100009.69
2022-08-10T18:47:58.949Z,100014.63
2022-08-10T18:52:58.038Z,100017.47
2022-08-10T18:58:20.181Z,100013.72
2022-08-10T19:03:25.692Z,100022.28
2022-08-10T19:08:49.539Z,100015.09
2022-08-10T19:13:51.103Z,100021.00
2022-08-10T19:19:00.506Z,100010.34
2022-08-10T19:23:58.091Z,100031.63
2022-08-10T19:30:04.957Z,100030.75
2022-08-10T19:34:53.352Z,100043.56
2022-08-10T19:40:12.169Z,100043.59
2022-08-10T19:46:01.997Z,100050.44
2022-08-10T19:51:01.983Z,100042.38
2022-08-10T19:56:30.559Z,100050.09
2022-08-10T20:01:20.271Z,100051.31
2022-08-10T20:06:24.121Z,100057.72
2022-08-10T20:11:46.045Z,100056.19
2022-08-10T20:16:42.838Z,100064.19
2022-08-10T20:21:47.284Z,100061.09
2022-08-10T20:26:55.590Z,100074.38
2022-08-10T20:31:53.290Z,100064.50
2022-08-10T20:36:56.897Z,100075.16
2022-08-10T20:42:10.553Z,100070.06
2022-08-10T20:47:18.493Z,100071.59
2022-08-10T20:52:10.977Z,100074.91
2022-08-10T20:57:05.460Z,100069.63
2022-08-10T21:02:34.899Z,100067.56
2022-08-10T21:08:01.139Z,100071.81
2022-08-10T21:13:16.313Z,100068.22
2022-08-10T21:18:08.113Z,100061.78
2022-08-10T21:23:05.921Z,100060.88
2022-08-10T21:28:29.432Z,100066.91
2022-08-10T21:33:45.432Z,100051.97
2022-08-10T21:38:57.956Z,100054.53
2022-08-10T21:45:01.079Z,100051.44
2022-08-10T21:50:27.461Z,100051.28
2022-08-10T21:55:58.252Z,100054.13
2022-08-10T22:01:15.207Z,100059.75
2022-08-10T22:06:27.854Z,100054.00
2022-08-10T22:11:42.997Z,100057.94
2022-08-10T22:17:59.470Z,100059.38
2022-08-10T22:22:56.095Z,100062.56
2022-08-10T22:28:12.389Z,100068.72
2022-08-10T22:33:27.722Z,100071.56
2022-08-10T22:39:08.730Z,100072.72
2022-08-10T22:44:21.206Z,100069.00
2022-08-10T22:49:13.506Z,100067.75
2022-08-10T22:54:35.954Z,100069.16
2022-08-10T22:59:32.630Z,100062.00
2022-08-10T23:04:55.761Z,100065.38
2022-08-10T23:10:10.309Z,100074.19
2022-08-10T23:15:22.247Z,100066.22
2022-08-10T23:20:18.169Z,100066.25
2022-08-10T23:25:13.826Z,100062.09
2022-08-10T23:30:17.708Z,100062.69
2022-08-10T23:36:08.761Z,100059.09
2022-08-10T23:40:32.866Z,100061.59
2022-08-10T23:45:27.893Z,100057.47
2022-08-10T23:50:20.554Z,100063.84
2022-08-10T23:55:19.684Z,100057.22
